createdAt,value
2023-05-01T00:01:12.424Z,97188.66
2023-05-01T00:03:40.604Z,97185.63
2023-05-01T00:06:09.127Z,97190.06
2023-05-01T00:08:37.123Z,97186.31
2023-05-01T00:11:05.844Z,97184.14
2023-05-01T00:13:34.102Z,97184.71
2023-05-01T00:16:02.316Z,97188.37
2023-05-01T00:18:31.083Z,97191.52
2023-05-01T00:20:59.153Z,97194.89
2023-05-01T00:23:27.932Z,97199.61
2023-05-01T00:25:55.818Z,97200.59
2023-05-01T00:28:24.042Z,97201.88
2023-05-01T00:30:52.395Z,97200.70
2023-05-01T00:33:20.384Z,97202.13
2023-05-01T00:35:49.150Z,97203.05
2023-05-01T00:38:17.120Z,97205.44
2023-05-01T00:40:45.817Z,97205.85
2023-05-01T00:43:14.217Z,97204.91
2023-05-01T00:45:43.935Z,97207.22
2023-05-01T00:48:12.041Z,97207.76
2023-05-01T00:50:41.099Z,97208.61
2023-05-01T00:53:09.069Z,97209.89
2023-05-01T00:55:39.394Z,97211.02
2023-05-01T00:58:07.805Z,97211.11
2023-05-01T01:00:35.767Z,97210.86
2023-05-01T01:03:04.942Z,97212.83
2023-05-01T01:05:36.195Z,97216.18
2023-05-01T01:08:22.817Z,97215.86
2023-05-01T01:10:50.869Z,97218.23
2023-05-01T01:13:31.343Z,97221.08
2023-05-01T01:16:04.482Z,97219.73
2023-05-01T01:18:38.434Z,97219.45
2023-05-01T01:21:07.021Z,97221.39
2023-05-01T01:23:34.879Z,97221.08
2023-05-01T01:26:11.869Z,97220.08
2023-05-01T01:28:39.951Z,97221.83
2023-05-01T01:31:26.647Z,97226.52
2023-05-01T01:33:54.696Z,97226.62
2023-05-01T01:36:34.902Z,97229.55
2023-05-01T01:39:10.842Z,97226.02
2023-05-01T01:41:41.784Z,97229.90
2023-05-01T01:44:13.888Z,97231.52
2023-05-01T01:46:42.829Z,97228.64
2023-05-01T01:49:13.788Z,97231.88
2023-05-01T01:51:42.359Z,97230.92
2023-05-01T01:54:11.885Z,97229.34
2023-05-01T01:56:42.211Z,97233.00
2023-05-01T01:59:11.218Z,97234.43
2023-05-01T02:01:41.861Z,97234.80
2023-05-01T02:04:11.519Z,97234.20
2023-05-01T02:06:41.214Z,97238.35
2023-05-01T02:09:11.193Z,97240.09
2023-05-01T02:11:41.208Z,97235.98
2023-05-01T02:14:11.650Z,97233.42
2023-05-01T02:16:41.089Z,97234.16
2023-05-01T02:19:09.841Z,97237.30
2023-05-01T02:21:39.360Z,97238.38
2023-05-01T02:24:07.431Z,97238.79
2023-05-01T02:26:39.092Z,97237.29
2023-05-01T02:29:07.708Z,97235.42
2023-05-01T02:31:35.899Z,97237.13
2023-05-01T02:34:04.131Z,97235.84
2023-05-01T02:36:33.438Z,97233.74
2023-05-01T02:39:01.791Z,97238.61
2023-05-01T02:41:30.105Z,97235.66
2023-05-01T02:44:01.256Z,97236.71
2023-05-01T02:46:31.164Z,97235.03
2023-05-01T02:49:01.824Z,97235.86
2023-05-01T02:51:30.112Z,97241.89
2023-05-01T02:53:59.353Z,97243.77
2023-05-01T02:56:28.292Z,97244.67
2023-05-01T02:58:57.082Z,97242.76
2023-05-01T03:01:24.999Z,97239.13
2023-05-01T03:03:53.178Z,97240.66
2023-05-01T03:06:21.345Z,97241.47
2023-05-01T03:08:49.389Z,97244.07
2023-05-01T03:11:17.291Z,97245.21
2023-05-01T03:13:46.468Z,97247.80
2023-05-01T03:16:14.466Z,97252.64
2023-05-01T03:18:42.451Z,97256.58
2023-05-01T03:21:10.347Z,97258.25
2023-05-01T03:23:38.956Z,97260.06
2023-05-01T03:26:07.774Z,97263.38
2023-05-01T03:28:35.944Z,97267.27
2023-05-01T03:31:03.915Z,97271.43
2023-05-01T03:33:32.906Z,97269.52
2023-05-01T03:36:02.314Z,97270.73
2023-05-01T03:38:30.903Z,97271.27
2023-05-01T03:41:10.959Z,97272.29
2023-05-01T03:43:57.891Z,97272.13
2023-05-01T03:46:46.337Z,97272.12
2023-05-01T03:49:19.519Z,97271.82
2023-05-01T03:51:49.045Z,97273.86
2023-05-01T03:54:17.313Z,97272.89
2023-05-01T03:57:23.571Z,97275.19
2023-05-01T03:59:51.693Z,97280.33
2023-05-01T04:02:20.494Z,97277.67
2023-05-01T04:04:48.796Z,97276.65
2023-05-01T04:07:16.899Z,97280.88
2023-05-01T04:09:45.454Z,97276.84
2023-05-01T04:12:14.454Z,97275.75
2023-05-01T04:14:44.598Z,97281.02
2023-05-01T04:17:13.249Z,97282.21
2023-05-01T04:19:42.161Z,97289.48
2023-05-01T04:22:10.285Z,97294.42
2023-05-01T04:24:38.464Z,97292.41
2023-05-01T04:27:06.338Z,97293.38
2023-05-01T04:29:34.254Z,97295.33
2023-05-01T04:32:02.675Z,97298.48
2023-05-01T04:34:31.023Z,97300.73
2023-05-01T04:36:59.321Z,97303.22
2023-05-01T04:39:27.596Z,97307.09
2023-05-01T04:41:57.396Z,97308.37
2023-05-01T04:44:26.393Z,97314.59
2023-05-01T04:46:54.641Z,97315.33
2023-05-01T04:49:23.489Z,97317.27
2023-05-01T04:51:51.442Z,97318.16
2023-05-01T04:54:19.955Z,97320.91
2023-05-01T04:56:48.317Z,97318.84
2023-05-01T04:59:17.625Z,97320.38
2023-05-01T05:01:46.552Z,97320.02
2023-05-01T05:04:14.840Z,97322.24
2023-05-01T05:06:43.138Z,97326.19
2023-05-01T05:09:17.402Z,97329.77
2023-05-01T05:11:47.116Z,97332.14
2023-05-01T05:14:22.440Z,97331.36
2023-05-01T05:16:50.901Z,97335.83
2023-05-01T05:19:19.325Z,97336.12
2023-05-01T05:21:47.794Z,97336.77
2023-05-01T05:24:16.085Z,97340.46
2023-05-01T05:26:44.067Z,97344.02
2023-05-01T05:29:12.245Z,97344.84
2023-05-01T05:31:40.480Z,97344.57
2023-05-01T05:34:09.118Z,97349.67
2023-05-01T05:36:37.860Z,97351.30
2023-05-01T05:39:05.904Z,97353.08
2023-05-01T05:41:34.161Z,97351.45
2023-05-01T05:44:03.293Z,97353.77
2023-05-01T05:46:32.219Z,97356.58
2023-05-01T05:49:00.661Z,97358.38
2023-05-01T05:51:28.804Z,97361.52
2023-05-01T05:53:57.714Z,97359.80
2023-05-01T05:56:25.995Z,97360.70
2023-05-01T05:58:54.999Z,97363.02
2023-05-01T06:01:22.966Z,97364.23
2023-05-01T06:03:51.267Z,97364.98
2023-05-01T06:06:19.652Z,97365.36
2023-05-01T06:08:47.709Z,97366.04
2023-05-01T06:11:16.318Z,97367.73
2023-05-01T06:13:44.480Z,97368.08
2023-05-01T06:16:12.741Z,97368.63
2023-05-01T06:18:42.141Z,97372.61
2023-05-01T06:21:11.781Z,97372.74
2023-05-01T06:23:40.048Z,97374.62
2023-05-01T06:26:27.167Z,97372.84
2023-05-01T06:28:56.071Z,97371.65
2023-05-01T06:31:24.863Z,97371.27
2023-05-01T06:33:55.392Z,97374.20
2023-05-01T06:36:39.027Z,97376.91
2023-05-01T06:39:07.110Z,97374.61
2023-05-01T06:41:36.334Z,97370.94
2023-05-01T06:44:05.193Z,97367.32
2023-05-01T06:46:33.296Z,97366.59
2023-05-01T06:49:01.970Z,97366.17
2023-05-01T06:51:31.678Z,97364.04
2023-05-01T06:53:59.958Z,97360.88
2023-05-01T06:56:28.030Z,97363.06
2023-05-01T06:58:55.822Z,97363.69
2023-05-01T07:01:23.997Z,97362.98
2023-05-01T07:03:51.823Z,97367.73
2023-05-01T07:06:19.850Z,97366.96
2023-05-01T07:08:48.001Z,97366.90
2023-05-01T07:11:16.070Z,97371.10
2023-05-01T07:13:44.270Z,97365.67
2023-05-01T07:16:12.476Z,97365.76
2023-05-01T07:18:40.931Z,97363.96
2023-05-01T07:21:11.863Z,97362.77
2023-05-01T07:23:39.849Z,97361.96
2023-05-01T07:26:08.026Z,97357.04
2023-05-01T07:28:36.085Z,97358.09
2023-05-01T07:31:04.484Z,97353.52
2023-05-01T07:33:32.561Z,97356.49
2023-05-01T07:36:00.408Z,97359.33
2023-05-01T07:38:28.309Z,97359.73
2023-05-01T07:40:57.203Z,97358.05
2023-05-01T07:43:25.187Z,97359.14
2023-05-01T07:45:57.608Z,97358.46
2023-05-01T07:48:26.724Z,97356.45
2023-05-01T07:50:55.187Z,97355.48
2023-05-01T07:53:23.317Z,97357.06
2023-05-01T07:55:51.718Z,97356.08
2023-05-01T07:58:19.784Z,97355.95
2023-05-01T08:00:47.655Z,97358.64
2023-05-01T08:03:16.110Z,97355.38
2023-05-01T08:05:44.311Z,97357.12
2023-05-01T08:08:13.511Z,97355.98
2023-05-01T08:10:41.495Z,97355.82
2023-05-01T08:13:09.460Z,97355.31
2023-05-01T08:15:39.270Z,97354.15
2023-05-01T08:18:07.162Z,97350.63
2023-05-01T08:20:36.763Z,97353.56
2023-05-01T08:23:04.937Z,97357.03
2023-05-01T08:25:32.956Z,97355.31
2023-05-01T08:28:00.890Z,97353.27
2023-05-01T08:30:28.705Z,97356.75
2023-05-01T08:32:56.714Z,97357.50
2023-05-01T08:35:24.910Z,97358.39
2023-05-01T08:37:52.792Z,97360.30
2023-05-01T08:40:21.069Z,97358.77
2023-05-01T08:42:49.266Z,97360.69
2023-05-01T08:45:18.966Z,97361.21
2023-05-01T08:47:48.282Z,97362.96
2023-05-01T08:50:17.683Z,97365.20
2023-05-01T08:52:46.361Z,97361.59
2023-05-01T08:55:15.036Z,97358.86
2023-05-01T08:57:47.131Z,97358.48
2023-05-01T09:00:18.438Z,97355.58
2023-05-01T09:02:50.814Z,97356.12
2023-05-01T09:05:19.845Z,97350.20
2023-05-01T09:07:48.328Z,97349.85
2023-05-01T09:10:19.141Z,97348.50
2023-05-01T09:12:54.326Z,97344.49
2023-05-01T09:15:22.703Z,97346.36
2023-05-01T09:17:50.843Z,97343.80
2023-05-01T09:20:19.909Z,97344.16
2023-05-01T09:22:48.238Z,97345.70
2023-05-01T09:25:16.229Z,97342.81
2023-05-01T09:27:44.835Z,97341.27
2023-05-01T09:30:30.512Z,97339.15
2023-05-01T09:33:26.027Z,97339.29
2023-05-01T09:35:55.024Z,97338.17
2023-05-01T09:38:23.994Z,97335.38
2023-05-01T09:40:57.384Z,97332.40
2023-05-01T09:43:26.920Z,97327.87
2023-05-01T09:46:00.951Z,97326.10
2023-05-01T09:48:29.391Z,97325.70
2023-05-01T09:50:57.475Z,97325.89
2023-05-01T09:53:38.854Z,97328.34
2023-05-01T09:56:07.221Z,97326.69
2023-05-01T09:58:35.318Z,97327.54
2023-05-01T10:01:03.429Z,97326.20
2023-05-01T10:03:32.195Z,97326.04
2023-05-01T10:06:02.969Z,97320.63
2023-05-01T10:08:49.548Z,97321.13
2023-05-01T10:11:17.498Z,97316.27
2023-05-01T10:13:45.467Z,97314.71
2023-05-01T10:16:30.176Z,97315.39
2023-05-01T10:18:59.436Z,97311.58
2023-05-01T10:21:28.017Z,97312.24
2023-05-01T10:23:56.208Z,97312.45
2023-05-01T10:26:26.429Z,97308.83
2023-05-01T10:28:55.311Z,97306.08
2023-05-01T10:31:23.356Z,97304.88
2023-05-01T10:33:53.204Z,97305.14
2023-05-01T10:36:24.285Z,97306.77
2023-05-01T10:38:52.332Z,97308.58
2023-05-01T10:41:39.247Z,97310.75
2023-05-01T10:44:23.788Z,97303.96
2023-05-01T10:46:52.110Z,97304.29
2023-05-01T10:49:20.142Z,97301.05
2023-05-01T10:52:01.314Z,97304.09
2023-05-01T10:54:29.903Z,97300.82
2023-05-01T10:56:58.926Z,97303.99
2023-05-01T10:59:28.214Z,97301.59
2023-05-01T11:01:56.244Z,97299.08
2023-05-01T11:04:30.097Z,97298.41
2023-05-01T11:07:11.477Z,97298.80
2023-05-01T11:09:39.892Z,97303.51
2023-05-01T11:12:09.263Z,97300.81
2023-05-01T11:14:52.362Z,97296.55
2023-05-01T11:17:39.169Z,97297.31
2023-05-01T11:20:07.782Z,97290.03
2023-05-01T11:22:36.674Z,97288.89
2023-05-01T11:25:05.195Z,97289.69
2023-05-01T11:27:33.344Z,97289.56
2023-05-01T11:30:01.430Z,97290.86
2023-05-01T11:32:32.269Z,97290.61
2023-05-01T11:35:00.635Z,97285.92
2023-05-01T11:37:44.920Z,97283.38
2023-05-01T11:40:19.915Z,97283.32
2023-05-01T11:42:48.308Z,97278.33
2023-05-01T11:45:16.386Z,97281.52
2023-05-01T11:47:44.582Z,97276.91
2023-05-01T11:50:12.834Z,97279.23
2023-05-01T11:52:53.602Z,97278.45
2023-05-01T11:55:21.885Z,97270.98
2023-05-01T11:57:50.887Z,97269.32
2023-05-01T12:00:31.131Z,97270.41
2023-05-01T12:03:03.418Z,97267.52
2023-05-01T12:05:32.264Z,97268.48
2023-05-01T12:08:07.267Z,97268.71
2023-05-01T12:10:35.789Z,97265.44
2023-05-01T12:13:04.418Z,97260.09
2023-05-01T12:15:35.364Z,97258.58
2023-05-01T12:18:04.600Z,97259.16
2023-05-01T12:20:40.014Z,97254.70
2023-05-01T12:23:10.766Z,97257.20
2023-05-01T12:25:39.592Z,97254.80
2023-05-01T12:28:11.911Z,97255.28
2023-05-01T12:30:40.292Z,97253.61
2023-05-01T12:33:15.242Z,97253.92
2023-05-01T12:35:46.801Z,97251.90
2023-05-01T12:38:15.473Z,97251.17
2023-05-01T12:40:53.800Z,97250.04
2023-05-01T12:43:22.787Z,97246.84
2023-05-01T12:45:52.718Z,97243.77
2023-05-01T12:48:20.876Z,97239.12
2023-05-01T12:50:54.904Z,97232.25
2023-05-01T12:53:24.495Z,97237.67
2023-05-01T12:55:54.109Z,97235.52
2023-05-01T12:58:22.491Z,97233.45
2023-05-01T13:00:51.452Z,97239.80
2023-05-01T13:03:29.321Z,97242.29
2023-05-01T13:05:58.949Z,97243.73
2023-05-01T13:08:31.191Z,97243.04
2023-05-01T13:11:09.274Z,97241.42
2023-05-01T13:13:37.904Z,97240.77
2023-05-01T13:16:12.753Z,97239.58
2023-05-01T13:18:44.249Z,97242.39
2023-05-01T13:21:14.820Z,97243.48
2023-05-01T13:23:43.377Z,97242.50
2023-05-01T13:26:11.654Z,97242.89
2023-05-01T13:28:45.325Z,97246.76
2023-05-01T13:31:14.225Z,97240.88
2023-05-01T13:33:46.132Z,97241.90
2023-05-01T13:36:25.220Z,97240.73
2023-05-01T13:38:57.325Z,97245.08
2023-05-01T13:41:26.235Z,97240.94
2023-05-01T13:43:55.205Z,97241.09
2023-05-01T13:46:23.955Z,97238.83
2023-05-01T13:48:52.220Z,97235.00
2023-05-01T13:51:22.353Z,97236.99
2023-05-01T13:53:50.688Z,97236.02
2023-05-01T13:56:18.957Z,97237.03
2023-05-01T13:58:46.945Z,97236.66
2023-05-01T14:01:16.024Z,97237.35
2023-05-01T14:03:44.939Z,97236.65
2023-05-01T14:06:14.269Z,97229.36
2023-05-01T14:08:43.270Z,97230.52
2023-05-01T14:11:14.074Z,97225.44
2023-05-01T14:13:42.696Z,97224.02
2023-05-01T14:16:12.052Z,97222.31
2023-05-01T14:18:47.499Z,97224.05
2023-05-01T14:21:16.637Z,97222.95
2023-05-01T14:23:44.597Z,97222.11
2023-05-01T14:26:17.489Z,97224.25
2023-05-01T14:28:46.682Z,97222.15
2023-05-01T14:31:25.400Z,97224.76
2023-05-01T14:33:55.334Z,97229.10
2023-05-01T14:36:23.698Z,97222.99
2023-05-01T14:38:53.320Z,97228.71
2023-05-01T14:41:21.398Z,97232.05
2023-05-01T14:43:53.367Z,97229.44
2023-05-01T14:46:32.242Z,97227.71
2023-05-01T14:49:01.168Z,97227.36
2023-05-01T14:51:31.427Z,97227.19
2023-05-01T14:53:59.799Z,97225.96
2023-05-01T14:56:27.865Z,97221.84
2023-05-01T14:58:55.751Z,97219.63
2023-05-01T15:01:23.861Z,97216.71
2023-05-01T15:03:53.411Z,97221.02
2023-05-01T15:06:22.039Z,97213.42
2023-05-01T15:08:50.410Z,97216.55
2023-05-01T15:11:18.997Z,97217.13
2023-05-01T15:13:49.422Z,97213.52
2023-05-01T15:16:17.476Z,97218.80
2023-05-01T15:18:45.684Z,97215.92
2023-05-01T15:21:13.862Z,97215.11
2023-05-01T15:23:45.265Z,97217.13
2023-05-01T15:26:14.001Z,97211.63
2023-05-01T15:28:41.986Z,97214.34
2023-05-01T15:31:09.960Z,97217.83
2023-05-01T15:33:38.076Z,97216.49
2023-05-01T15:36:06.420Z,97216.83
2023-05-01T15:38:34.390Z,97216.59
2023-05-01T15:41:02.271Z,97216.18
2023-05-01T15:43:30.681Z,97218.67
2023-05-01T15:45:59.866Z,97222.22
2023-05-01T15:48:28.037Z,97223.52
2023-05-01T15:50:55.908Z,97221.11
2023-05-01T15:53:23.996Z,97218.80
2023-05-01T15:55:52.363Z,97217.91
2023-05-01T15:58:23.110Z,97219.95
2023-05-01T16:00:51.097Z,97220.67
2023-05-01T16:03:19.392Z,97220.64
2023-05-01T16:05:47.595Z,97224.93
2023-05-01T16:08:17.451Z,97225.67
2023-05-01T16:10:45.611Z,97229.16
2023-05-01T16:13:14.221Z,97229.73
2023-05-01T16:15:42.294Z,97228.84
2023-05-01T16:18:16.181Z,97228.02
2023-05-01T16:20:44.280Z,97230.30
2023-05-01T16:23:14.402Z,97236.09
2023-05-01T16:25:43.111Z,97235.34
2023-05-01T16:28:11.997Z,97236.97
2023-05-01T16:30:43.559Z,97237.15
2023-05-01T16:33:18.536Z,97241.08
2023-05-01T16:35:50.336Z,97245.73
2023-05-01T16:38:19.266Z,97249.15
2023-05-01T16:40:48.350Z,97245.63
2023-05-01T16:43:16.713Z,97246.61
2023-05-01T16:45:44.701Z,97241.92
2023-05-01T16:48:15.247Z,97243.73
2023-05-01T16:50:43.098Z,97244.48
2023-05-01T16:53:10.965Z,97245.52
2023-05-01T16:55:38.959Z,97247.30
2023-05-01T16:58:07.127Z,97249.96
2023-05-01T17:00:35.362Z,97250.59
2023-05-01T17:03:03.713Z,97252.08
2023-05-01T17:05:31.863Z,97252.68
2023-05-01T17:08:00.057Z,97251.59
2023-05-01T17:10:28.424Z,97254.02
2023-05-01T17:12:56.614Z,97253.83
2023-05-01T17:15:24.686Z,97250.98
2023-05-01T17:17:52.690Z,97254.17
2023-05-01T17:20:21.266Z,97255.45
2023-05-01T17:22:49.310Z,97257.93
2023-05-01T17:25:17.349Z,97260.42
2023-05-01T17:27:45.271Z,97261.25
2023-05-01T17:30:13.870Z,97265.69
2023-05-01T17:32:42.019Z,97265.64
2023-05-01T17:35:10.333Z,97264.08
2023-05-01T17:37:41.067Z,97269.30
2023-05-01T17:40:11.497Z,97272.81
2023-05-01T17:42:39.664Z,97274.57
2023-05-01T17:45:10.098Z,97276.36
2023-05-01T17:47:43.107Z,97277.66
2023-05-01T17:50:13.055Z,97277.70
2023-05-01T17:52:42.212Z,97284.45
2023-05-01T17:55:10.807Z,97282.19
2023-05-01T17:57:39.998Z,97282.02
2023-05-01T18:00:08.915Z,97286.57
2023-05-01T18:02:45.096Z,97291.93
2023-05-01T18:05:13.556Z,97295.14
2023-05-01T18:07:41.514Z,97297.52
2023-05-01T18:10:10.015Z,97306.17
2023-05-01T18:12:37.857Z,97309.42
2023-05-01T18:15:06.180Z,97306.90
2023-05-01T18:17:34.085Z,97309.24
2023-05-01T18:20:02.962Z,97310.55
2023-05-01T18:22:30.896Z,97311.98
2023-05-01T18:24:58.776Z,97314.55
2023-05-01T18:27:27.250Z,97314.36
2023-05-01T18:29:55.321Z,97321.32
2023-05-01T18:32:32.903Z,97325.19
2023-05-01T18:35:04.399Z,97331.12
2023-05-01T18:37:32.965Z,97333.73
2023-05-01T18:40:01.337Z,97333.67
2023-05-01T18:42:29.627Z,97340.58
2023-05-01T18:44:57.715Z,97339.73
2023-05-01T18:47:26.938Z,97342.73
2023-05-01T18:49:54.889Z,97344.70
2023-05-01T18:52:22.970Z,97350.56
2023-05-01T18:54:51.463Z,97351.32
2023-05-01T18:57:19.327Z,97352.98
2023-05-01T18:59:47.313Z,97355.02
2023-05-01T19:02:15.274Z,97356.15
2023-05-01T19:04:56.761Z,97358.45
2023-05-01T19:07:26.006Z,97359.79
2023-05-01T19:09:54.343Z,97364.90
2023-05-01T19:12:22.429Z,97366.44
2023-05-01T19:14:50.491Z,97370.96
2023-05-01T19:17:19.007Z,97371.48
2023-05-01T19:19:47.157Z,97368.30
2023-05-01T19:22:15.030Z,97373.05
2023-05-01T19:24:42.920Z,97375.21
2023-05-01T19:27:11.797Z,97373.77
2023-05-01T19:29:39.982Z,97376.77
2023-05-01T19:32:08.103Z,97380.11
2023-05-01T19:34:36.525Z,97380.83
2023-05-01T19:37:04.606Z,97379.63
2023-05-01T19:39:32.685Z,97378.96
2023-05-01T19:42:02.237Z,97379.06
2023-05-01T19:44:30.278Z,97375.49
2023-05-01T19:46:58.249Z,97379.38
2023-05-01T19:49:26.528Z,97381.33
2023-05-01T19:51:54.814Z,97374.30
2023-05-01T19:54:22.900Z,97377.25
2023-05-01T19:56:51.854Z,97377.55
2023-05-01T19:59:19.864Z,97374.04
2023-05-01T20:01:47.796Z,97374.86
2023-05-01T20:04:16.208Z,97376.56
2023-05-01T20:06:44.403Z,97372.93
2023-05-01T20:09:12.465Z,97372.86
2023-05-01T20:11:40.348Z,97377.87
2023-05-01T20:14:08.429Z,97378.54
2023-05-01T20:16:36.932Z,97380.91
2023-05-01T20:19:05.005Z,97381.42
2023-05-01T20:21:32.896Z,97381.39
2023-05-01T20:24:00.775Z,97385.08
2023-05-01T20:26:28.901Z,97381.84
2023-05-01T20:28:57.096Z,97385.64
2023-05-01T20:31:25.019Z,97388.19
2023-05-01T20:33:53.144Z,97387.99
2023-05-01T20:36:22.425Z,97389.08
2023-05-01T20:38:53.253Z,97396.18
2023-05-01T20:41:21.975Z,97397.45
2023-05-01T20:43:49.842Z,97398.36
2023-05-01T20:46:18.206Z,97399.01
2023-05-01T20:48:47.570Z,97403.85
2023-05-01T20:51:16.236Z,97404.61
2023-05-01T20:53:44.399Z,97406.27
2023-05-01T20:56:12.380Z,97408.77
2023-05-01T20:58:40.354Z,97407.77
2023-05-01T21:01:08.472Z,97406.83
2023-05-01T21:03:36.849Z,97409.45
2023-05-01T21:06:04.975Z,97408.52
2023-05-01T21:08:33.987Z,97408.73
2023-05-01T21:11:02.913Z,97409.41
2023-05-01T21:13:31.682Z,97412.80
2023-05-01T21:16:00.302Z,97418.17
2023-05-01T21:18:32.641Z,97419.55
2023-05-01T21:21:02.263Z,97421.52
2023-05-01T21:23:30.529Z,97421.48
2023-05-01T21:25:58.519Z,97419.75
2023-05-01T21:28:26.487Z,97421.18
2023-05-01T21:30:54.581Z,97417.63
2023-05-01T21:33:22.618Z,97424.71
2023-05-01T21:35:50.626Z,97425.05
2023-05-01T21:38:18.591Z,97422.27
2023-05-01T21:40:46.654Z,97423.86
2023-05-01T21:43:14.836Z,97426.98
2023-05-01T21:45:43.513Z,97429.77
2023-05-01T21:48:14.607Z,97423.85
2023-05-01T21:50:42.757Z,97428.23
2023-05-01T21:53:10.749Z,97424.90
2023-05-01T21:55:38.897Z,97423.59
2023-05-01T21:58:06.792Z,97422.38
2023-05-01T22:00:34.925Z,97424.30
2023-05-01T22:03:06.264Z,97428.84
2023-05-01T22:05:34.798Z,97433.15
2023-05-01T22:08:02.769Z,97432.77
2023-05-01T22:10:30.646Z,97433.45
2023-05-01T22:12:58.705Z,97434.47
2023-05-01T22:15:26.790Z,97434.94
2023-05-01T22:17:54.659Z,97437.48
2023-05-01T22:20:22.638Z,97438.73
2023-05-01T22:22:50.475Z,97439.45
2023-05-01T22:25:18.589Z,97437.60
2023-05-01T22:27:46.975Z,97438.32
2023-05-01T22:30:14.845Z,97437.69
2023-05-01T22:32:42.761Z,97439.73
2023-05-01T22:35:10.998Z,97437.87
2023-05-01T22:37:39.048Z,97439.96
2023-05-01T22:40:07.563Z,97442.72
2023-05-01T22:42:36.143Z,97437.44
2023-05-01T22:45:04.433Z,97437.09
2023-05-01T22:47:32.424Z,97437.48
2023-05-01T22:50:00.640Z,97439.31
2023-05-01T22:52:29.065Z,97435.91
2023-05-01T22:54:56.942Z,97432.02
2023-05-01T22:57:25.017Z,97432.09
2023-05-01T22:59:53.105Z,97430.86
2023-05-01T23:02:21.469Z,97426.04
2023-05-01T23:04:49.745Z,97424.79
2023-05-01T23:07:18.236Z,97420.23
2023-05-01T23:09:46.939Z,97420.08
2023-05-01T23:12:16.785Z,97417.31
2023-05-01T23:14:45.950Z,97416.45
2023-05-01T23:17:14.976Z,97416.15
2023-05-01T23:19:46.292Z,97414.81
2023-05-01T23:22:14.478Z,97415.89
2023-05-01T23:24:44.498Z,97415.93
2023-05-01T23:27:13.810Z,97417.15
2023-05-01T23:29:42.019Z,97421.59
2023-05-01T23:32:15.349Z,97420.66
2023-05-01T23:34:43.465Z,97425.22
2023-05-01T23:37:11.332Z,97428.56
2023-05-01T23:39:39.207Z,97429.98
2023-05-01T23:42:07.119Z,97426.38
2023-05-01T23:44:35.247Z,97425.23
2023-05-01T23:47:03.303Z,97427.86
2023-05-01T23:49:31.411Z,97433.96
2023-05-01T23:51:59.381Z,97430.51
2023-05-01T23:54:27.562Z,97431.93
2023-05-01T23:56:55.940Z,97430.91
2023-05-01T23:59:24.119Z,97430.95
